Time;durP1;ratioP1;P1;durP2;ratioP2;P2;SDS_P1;SDS_P2;PMS_P1;PMS_P2;Temp;Humidity;BMP_temperature;BMP_pressure;BME280_temperature;BME280_humidity;BME280_pressure;Samples;Min_cycle;Max_cycle;Signal;HPM_P1;HPM_P2
2022/08/12 00:44:22;;;;;;;;;12.00;12.00;;;;;-147.49;100.00;58502.75;6229996;22;28310;-91
2022/08/12 00:46:59;;;;;;;;;16.33;16.33;;;;;-147.49;100.00;58502.75;6228999;22;28663;-91
2022/08/12 00:49:32;;;;;;;;;12.67;12.67;;;;;-147.49;100.00;58502.75;6336173;22;28647;-91
2022/08/12 00:52:10;;;;;;;;;12.67;12.67;;;;;-147.49;100.00;58502.75;6227668;22;28311;-91
2022/08/12 00:54:57;;;;;;;;;16.00;16.00;;;;;-147.49;100.00;58502.75;6227176;22;28805;-91
2022/08/12 00:57:30;;;;;;;;;14.67;14.67;;;;;-147.49;100.00;58502.75;6201636;22;29903;-91
2022/08/12 01:00:10;;;;;;;;;13.67;13.67;;;;;-147.49;100.00;58502.75;6201859;22;28404;-91
2022/08/12 01:02:39;;;;;;;;;15.67;15.67;;;;;-147.49;100.00;58502.75;6202625;22;28315;-90
2022/08/12 01:13:30;;;;;;;;;14.67;14.67;;;;;-147.49;100.00;58502.75;6370486;22;28249;-91
2022/08/12 01:16:00;;;;;;;;;14.33;14.33;;;;;-147.49;100.00;58502.75;6394164;22;28322;-91
2022/08/12 01:18:28;;;;;;;;;15.33;14.00;;;;;-147.49;100.00;58502.75;6362193;22;29698;-91
2022/08/12 01:21:17;;;;;;;;;18.67;18.67;;;;;-147.49;100.00;58502.75;6361105;22;29513;-91
2022/08/12 01:23:45;;;;;;;;;18.33;18.33;;;;;-147.49;100.00;58502.75;6388925;22;28382;-91
2022/08/12 01:26:19;;;;;;;;;21.00;20.00;;;;;-147.49;100.00;58502.75;6380788;22;28550;-91
2022/08/12 01:28:50;;;;;;;;;17.00;17.00;;;;;-147.49;100.00;58502.75;6363333;22;30824;-91
2022/08/12 01:31:20;;;;;;;;;15.67;15.67;;;;;-147.49;100.00;58502.75;6363105;22;28486;-91
2022/08/12 01:34:02;;;;;;;;;19.33;19.33;;;;;-147.49;100.00;58502.75;6393429;22;28397;-91
2022/08/12 01:36:35;;;;;;;;;16.33;16.33;;;;;-147.49;100.00;58502.75;6392173;22;28547;-91
2022/08/12 01:39:05;;;;;;;;;16.33;16.33;;;;;-147.49;100.00;58502.75;6392007;22;28525;-91
2022/08/12 01:41:35;;;;;;;;;20.67;20.67;;;;;-147.49;100.00;58502.75;6393651;22;28257;-91
2022/08/12 01:44:02;;;;;;;;;19.33;19.33;;;;;-147.49;100.00;58502.75;6364778;22;28293;-91
2022/08/12 01:46:28;;;;;;;;;16.67;16.67;;;;;-147.49;100.00;58502.75;6392789;22;28376;-91
2022/08/12 01:48:53;;;;;;;;;20.00;20.00;;;;;-147.49;100.00;58502.75;6393132;22;28273;-91
2022/08/12 01:51:30;;;;;;;;;20.33;20.33;;;;;-147.49;100.00;58502.75;6386527;22;28285;-91
2022/08/12 01:54:08;;;;;;;;;19.00;19.00;;;;;-147.49;100.00;58502.75;6392149;22;28682;-91
2022/08/12 01:56:47;;;;;;;;;19.67;19.67;;;;;-147.49;100.00;58502.75;6364181;22;28463;-91
2022/08/12 02:02:10;;;;;;;;;21.33;21.33;;;;;-147.49;100.00;58502.75;6391868;22;28517;-91
2022/08/12 02:11:17;;;;;;;;;14.33;14.33;;;;;-147.49;100.00;58502.75;6378208;22;28487;-90
2022/08/12 02:14:05;;;;;;;;;19.67;19.67;;;;;-147.49;100.00;58502.75;6364364;22;28590;-91
2022/08/12 02:17:01;;;;;;;;;21.00;21.00;;;;;-147.49;100.00;58502.75;6364502;22;28468;-91
2022/08/12 02:19:53;;;;;;;;;20.00;20.00;;;;;-147.49;100.00;58502.75;6363131;22;28383;-91
2022/08/12 02:22:54;;;;;;;;;18.33;18.33;;;;;-147.49;100.00;58502.75;6391660;22;28576;-91
2022/08/12 02:25:35;;;;;;;;;14.33;14.33;;;;;-147.49;100.00;58502.75;6308911;22;28177;-91
2022/08/12 02:28:02;;;;;;;;;16.33;16.33;;;;;-147.49;100.00;58502.75;6391269;22;28395;-91
2022/08/12 02:30:32;;;;;;;;;17.33;17.33;;;;;-147.49;100.00;58502.75;6391888;22;28414;-92
2022/08/12 02:33:00;;;;;;;;;19.00;19.00;;;;;-147.49;100.00;58502.75;6391177;22;28384;-91
2022/08/12 02:35:30;;;;;;;;;18.00;18.00;;;;;-147.49;100.00;58502.75;6363727;22;29186;-91
2022/08/12 02:38:01;;;;;;;;;18.33;18.33;;;;;-147.49;100.00;58502.75;6391333;22;28358;-90
2022/08/12 02:40:31;;;;;;;;;15.67;15.67;;;;;-147.49;100.00;58502.75;6390512;22;28540;-91
2022/08/12 02:42:57;;;;;;;;;9.00;9.00;;;;;-147.49;100.00;58502.75;6389639;22;28654;-91
2022/08/12 02:45:34;;;;;;;;;12.33;12.00;;;;;-147.49;100.00;58502.75;6390471;22;28174;-91
2022/08/12 02:48:05;;;;;;;;;18.00;18.00;;;;;-147.49;100.00;58502.75;6361760;22;28416;-91
2022/08/12 02:50:35;;;;;;;;;14.33;14.33;;;;;-147.49;100.00;58502.75;6384456;22;28296;-91
2022/08/12 02:53:03;;;;;;;;;14.67;14.67;;;;;-147.49;100.00;58502.75;6392335;22;28360;-91
2022/08/12 02:55:34;;;;;;;;;17.00;17.00;;;;;-147.49;100.00;58502.75;6361259;22;28302;-91
2022/08/12 02:58:03;;;;;;;;;15.67;15.67;;;;;-147.49;100.00;58502.75;6393464;22;28403;-91
2022/08/12 03:00:30;;;;;;;;;16.00;16.00;;;;;-147.49;100.00;58502.75;6365069;22;28565;-90
2022/08/12 03:02:59;;;;;;;;;13.67;13.67;;;;;-147.49;100.00;58502.75;6362961;22;28516;-90
2022/08/12 03:05:25;;;;;;;;;16.00;16.00;;;;;-147.49;100.00;58502.75;6364281;22;28407;-91
2022/08/12 03:07:55;;;;;;;;;19.00;17.00;;;;;-147.49;100.00;58502.75;6363581;22;28420;-91
2022/08/12 03:10:23;;;;;;;;;12.00;12.00;;;;;-147.49;100.00;58502.75;6392751;22;28186;-91
2022/08/12 03:12:53;;;;;;;;;15.00;15.00;;;;;-147.49;100.00;58502.75;6390996;22;28476;-91
2022/08/12 03:15:21;;;;;;;;;16.67;16.67;;;;;-147.49;100.00;58502.75;6393721;22;28401;-91
2022/08/12 03:18:15;;;;;;;;;19.67;19.67;;;;;-147.49;100.00;58502.75;6393404;22;28249;-91
2022/08/12 03:20:49;;;;;;;;;18.33;18.33;;;;;-147.49;100.00;58502.75;6392518;22;28171;-91
2022/08/12 03:23:16;;;;;;;;;18.33;17.00;;;;;-147.49;100.00;58502.75;6363030;22;29699;-91
2022/08/12 03:25:43;;;;;;;;;18.00;18.00;;;;;-147.49;100.00;58502.75;6392755;22;28328;-90
2022/08/12 03:28:12;;;;;;;;;16.67;16.67;;;;;-147.49;100.00;58502.75;6364695;22;28515;-90
2022/08/12 03:30:41;;;;;;;;;14.67;14.67;;;;;-147.49;100.00;58502.75;6392446;22;28324;-91
2022/08/12 03:33:10;;;;;;;;;15.33;15.00;;;;;-147.49;100.00;58502.75;6393323;22;29111;-91
2022/08/12 03:35:41;;;;;;;;;16.00;16.00;;;;;-147.49;100.00;58502.75;6365759;22;28716;-91
2022/08/12 03:38:10;;;;;;;;;17.00;17.00;;;;;-147.49;100.00;58502.75;6393964;22;28347;-91
2022/08/12 04:00:35;;;;;;;;;15.33;15.33;;;;;-147.49;100.00;58502.75;6394081;22;28456;-91
2022/08/12 04:03:00;;;;;;;;;14.67;14.67;;;;;-147.49;100.00;58502.75;6365692;22;28518;-90
2022/08/12 04:05:31;;;;;;;;;14.33;14.33;;;;;-147.49;100.00;58502.75;6366001;22;30873;-91
2022/08/12 04:07:58;;;;;;;;;14.33;14.33;;;;;-147.49;100.00;58502.75;6364355;22;28665;-90
2022/08/12 04:13:14;;;;;;;;;13.00;13.00;;;;;-147.49;100.00;58502.75;6394575;22;28342;-91
2022/08/12 04:13:17;;;;;;;;;15.33;15.33;;;;;-147.49;100.00;58502.75;6392697;22;28300;-91
2022/08/12 04:15:44;;;;;;;;;16.67;14.33;;;;;-147.49;100.00;58502.75;6393984;22;28351;-91
2022/08/12 04:18:14;;;;;;;;;14.00;14.00;;;;;-147.49;100.00;58502.75;6394413;22;28325;-90
2022/08/12 04:20:43;;;;;;;;;13.67;13.67;;;;;-147.49;100.00;58502.75;6365612;22;28409;-91
2022/08/12 04:23:13;;;;;;;;;15.00;15.00;;;;;-147.49;100.00;58502.75;6392277;22;28265;-91
2022/08/12 04:25:40;;;;;;;;;16.00;16.00;;;;;-147.49;100.00;58502.75;6394051;22;28210;-90
2022/08/12 04:28:07;;;;;;;;;13.67;13.67;;;;;-147.49;100.00;58502.75;6363919;22;28555;-91
2022/08/12 04:30:34;;;;;;;;;13.00;13.00;;;;;-147.49;100.00;58502.75;6392674;22;28416;-91
2022/08/12 04:33:00;;;;;;;;;12.33;12.33;;;;;-147.49;100.00;58502.75;6393772;22;28214;-91
2022/08/12 04:35:26;;;;;;;;;12.67;12.67;;;;;-147.49;100.00;58502.75;6364458;22;28411;-91
2022/08/12 04:37:55;;;;;;;;;13.67;13.67;;;;;-147.49;100.00;58502.75;6363235;22;28365;-90
2022/08/12 04:40:22;;;;;;;;;14.00;14.00;;;;;-147.49;100.00;58502.75;6392994;22;28804;-91
2022/08/12 04:42:50;;;;;;;;;9.67;9.67;;;;;-147.49;100.00;58502.75;6392614;22;28544;-91
2022/08/12 04:45:16;;;;;;;;;12.00;12.00;;;;;-147.49;100.00;58502.75;6385255;22;28368;-91
2022/08/12 04:47:42;;;;;;;;;13.00;13.00;;;;;-147.49;100.00;58502.75;6391394;22;28346;-91
2022/08/12 04:50:10;;;;;;;;;11.67;11.67;;;;;-147.49;100.00;58502.75;6365535;22;28269;-91
2022/08/12 04:52:36;;;;;;;;;10.00;10.00;;;;;-147.49;100.00;58502.75;6391111;22;28840;-91
2022/08/12 04:55:02;;;;;;;;;10.33;10.33;;;;;-147.49;100.00;58502.75;6362171;22;30764;-91
2022/08/12 04:57:27;;;;;;;;;10.00;10.00;;;;;-147.49;100.00;58502.75;6361655;22;28516;-90
2022/08/12 04:59:53;;;;;;;;;9.33;9.33;;;;;-147.49;100.00;58502.75;6391591;22;28441;-91
2022/08/12 05:02:19;;;;;;;;;13.67;13.67;;;;;-147.49;100.00;58502.75;6362190;22;28991;-91
2022/08/12 05:04:48;;;;;;;;;13.33;13.33;;;;;-147.49;100.00;58502.75;6362526;22;29681;-91
2022/08/12 05:07:14;;;;;;;;;10.00;10.00;;;;;-147.49;100.00;58502.75;6391434;22;28567;-91
2022/08/12 05:09:39;;;;;;;;;12.33;12.33;;;;;-147.49;100.00;58502.75;6390167;22;28363;-91
2022/08/12 05:12:06;;;;;;;;;13.33;13.33;;;;;-147.49;100.00;58502.75;6380944;22;28612;-91
2022/08/12 05:14:32;;;;;;;;;13.00;13.00;;;;;-147.49;100.00;58502.75;6333266;22;29779;-91
2022/08/12 05:16:59;;;;;;;;;13.67;13.67;;;;;-147.49;100.00;58502.75;6362544;22;28443;-90
2022/08/12 05:19:25;;;;;;;;;10.67;10.67;;;;;-147.49;100.00;58502.75;6356622;22;28358;-91
2022/08/12 05:21:51;;;;;;;;;14.00;14.00;;;;;-147.49;100.00;58502.75;6360614;22;28155;-91
2022/08/12 05:24:17;;;;;;;;;14.33;14.33;;;;;-147.49;100.00;58502.75;6359635;22;29694;-91
2022/08/12 05:26:49;;;;;;;;;14.33;14.33;;;;;-147.49;100.00;58502.75;6362605;22;28187;-91
2022/08/12 05:29:15;;;;;;;;;15.33;15.33;;;;;-147.49;100.00;58502.75;6359843;22;28261;-91
2022/08/12 05:31:45;;;;;;;;;12.33;12.33;;;;;-147.49;100.00;58502.75;6362133;22;28267;-91
2022/08/12 05:34:13;;;;;;;;;12.67;12.67;;;;;-147.49;100.00;58502.75;6359387;22;29759;-91
2022/08/12 05:36:40;;;;;;;;;12.33;12.33;;;;;-147.49;100.00;58502.75;6359911;22;28471;-91
2022/08/12 05:39:06;;;;;;;;;14.33;14.33;;;;;-147.49;100.00;58502.75;6360270;22;28392;-91
2022/08/12 05:41:34;;;;;;;;;13.67;13.67;;;;;-147.49;100.00;58502.75;6359160;22;28195;-91
2022/08/12 05:44:06;;;;;;;;;14.00;14.00;;;;;-147.49;100.00;58502.75;6360094;22;29635;-92
2022/08/12 05:46:33;;;;;;;;;13.00;12.00;;;;;-147.49;100.00;58502.75;6333026;22;28394;-91
2022/08/12 05:49:01;;;;;;;;;13.67;13.33;;;;;-147.49;100.00;58502.75;6360508;22;28272;-91
2022/08/12 05:51:30;;;;;;;;;10.67;10.67;;;;;-147.49;100.00;58502.75;6361140;22;28382;-91
2022/08/12 05:53:57;;;;;;;;;12.33;12.33;;;;;-147.49;100.00;58502.75;6359148;22;30631;-91
2022/08/12 05:56:29;;;;;;;;;14.00;14.00;;;;;-147.49;100.00;58502.75;6361160;22;28163;-91
2022/08/12 05:58:58;;;;;;;;;13.33;13.33;;;;;-147.49;100.00;58502.75;6360404;22;28374;-91
2022/08/12 06:01:25;;;;;;;;;12.00;12.00;;;;;-147.49;100.00;58502.75;6360998;22;28186;-91
2022/08/12 06:03:54;;;;;;;;;8.67;8.67;;;;;-147.49;100.00;58502.75;6359635;22;29394;-91
2022/08/12 06:06:22;;;;;;;;;13.33;13.33;;;;;-147.49;100.00;58502.75;6333683;22;28688;-91
2022/08/12 06:08:57;;;;;;;;;12.00;12.00;;;;;-147.49;100.00;58502.75;6361954;22;28175;-91
2022/08/12 06:11:26;;;;;;;;;13.00;13.00;;;;;-147.49;100.00;58502.75;6332899;22;28277;-91
2022/08/12 06:13:54;;;;;;;;;12.67;12.67;;;;;-147.49;100.00;58502.75;6332069;22;29750;-91
2022/08/12 06:16:21;;;;;;;;;11.67;11.67;;;;;-147.49;100.00;58502.75;6361337;22;28252;-91
2022/08/12 06:18:55;;;;;;;;;11.67;11.67;;;;;-147.49;100.00;58502.75;6359802;22;28244;-91
2022/08/12 06:21:33;;;;;;;;;12.33;12.33;;;;;-147.49;100.00;58502.75;6331632;22;28436;-91
2022/08/12 06:24:06;;;;;;;;;12.67;12.67;;;;;-147.49;100.00;58502.75;6329373;22;28581;-92
2022/08/12 06:26:34;;;;;;;;;15.33;15.33;;;;;-147.49;100.00;58502.75;6360995;22;28377;-91
2022/08/12 06:29:19;;;;;;;;;;;;;;;;;;;;;
2022/08/12 12:14:31;;;;;;;;;;;;;;;;;;;;;
2022/08/12 12:16:57;;;;;;;;;8.50;8.50;;;;;-147.49;100.00;58502.75;6387888;22;56093;-91
2022/08/12 12:19:55;;;;;;;;;11.50;11.50;;;;;-147.49;100.00;58502.75;6395635;22;28341;-96
2022/08/12 12:22:47;;;;;;;;;;;;;;;;;;;;;
2022/08/12 12:25:56;;;;;;;;;11.00;11.00;;;;;-147.49;100.00;58502.75;6392083;22;56792;-93
2022/08/12 12:32:33;;;;;;;;;;;;;;;;;;;;;
2022/08/12 12:35:15;;;;;;;;;9.67;9.67;;;;;-147.49;100.00;58502.75;6390176;22;28429;-92
2022/08/12 12:38:23;;;;;;;;;;;;;;;;;;;;;
2022/08/12 12:40:59;;;;;;;;;8.33;8.33;;;;;-147.49;100.00;58502.75;6330029;22;53255;-91
2022/08/12 12:49:11;;;;;;;;;8.67;8.67;;;;;-147.49;100.00;58502.75;6389653;22;28446;-91
2022/08/12 12:52:35;;;;;;;;;;;;;;;;;;;;;
2022/08/12 13:05:59;;;;;;;;;10.67;10.67;;;;;-147.49;100.00;58502.75;6394429;22;28371;-92
2022/08/12 13:09:16;;;;;;;;;;;;;;;;;;;;;
2022/08/12 13:11:55;;;;;;;;;;;;;;;;;;;;;
2022/08/12 13:15:06;;;;;;;;;;;;;;;;;;;;;
2022/08/12 13:17:34;;;;;;;;;9.67;9.67;;;;;-147.49;100.00;58502.75;6337789;22;28324;-91
2022/08/12 13:20:18;;;;;;;;;10.33;10.33;;;;;-147.49;100.00;58502.75;6359713;22;28479;-91
2022/08/12 13:23:27;;;;;;;;;11.33;11.33;;;;;-147.49;100.00;58502.75;6357281;22;29360;-91
2022/08/12 13:26:32;;;;;;;;;;;;;;;;;;;;;
2022/08/12 13:29:51;;;;;;;;;9.33;9.33;;;;;-147.49;100.00;58502.75;6356142;22;53560;-91
2022/08/12 13:35:37;;;;;;;;;9.00;9.00;;;;;-147.49;100.00;58502.75;6242764;22;28301;-91
2022/08/12 13:39:01;;;;;;;;;;;;;;;;;;;;;
2022/08/12 13:42:24;;;;;;;;;;;;;;;;;;;;;
2022/08/12 13:45:06;;;;;;;;;8.00;8.00;;;;;-147.49;100.00;58502.75;6324874;22;53441;-91
2022/08/12 13:48:48;;;;;;;;;;;;;;;;;;;;;
2022/08/12 13:54:18;;;;;;;;;10.00;9.33;;;;;-147.49;100.00;58502.75;6419630;22;28534;-91
